createdAt,value
2022-12-07T00:01:27.840Z,77.70
2022-12-07T00:04:01.565Z,77.70
2022-12-07T00:06:29.238Z,77.80
2022-12-07T00:08:56.707Z,77.80
2022-12-07T00:11:25.209Z,77.70
2022-12-07T00:13:54.900Z,77.90
2022-12-07T00:16:24.719Z,77.80
2022-12-07T00:18:52.196Z,77.60
2022-12-07T00:21:22.802Z,77.20
2022-12-07T00:23:51.970Z,76.90
2022-12-07T00:26:33.630Z,76.70
2022-12-07T00:29:08.678Z,76.40
2022-12-07T00:31:40.087Z,76.10
2022-12-07T00:34:12.219Z,76.10
2022-12-07T00:36:39.872Z,76.00
2022-12-07T00:39:07.476Z,76.10
2022-12-07T00:41:35.154Z,76.10
2022-12-07T00:44:02.653Z,76.20
2022-12-07T00:46:30.902Z,76.20
2022-12-07T00:48:58.370Z,76.10
2022-12-07T00:51:26.634Z,76.20
2022-12-07T00:53:54.024Z,76.40
2022-12-07T00:56:25.837Z,76.60
2022-12-07T00:59:01.232Z,76.60
2022-12-07T01:01:32.126Z,76.80
2022-12-07T01:04:02.161Z,77.00
2022-12-07T01:06:30.754Z,77.10
2022-12-07T01:08:59.031Z,77.00
2022-12-07T01:11:29.687Z,77.10
2022-12-07T01:13:58.956Z,77.90
2022-12-07T01:16:28.512Z,77.20
2022-12-07T01:18:57.086Z,77.30
2022-12-07T01:21:27.159Z,78.20
2022-12-07T01:23:54.674Z,77.60
2022-12-07T01:26:24.519Z,77.70
2022-12-07T01:28:52.478Z,78.40
2022-12-07T01:31:22.061Z,77.70
2022-12-07T01:33:52.486Z,77.70
2022-12-07T01:36:26.052Z,77.70
2022-12-07T01:38:57.403Z,77.70
2022-12-07T01:41:27.360Z,77.70
2022-12-07T01:44:15.915Z,77.80
2022-12-07T01:46:52.679Z,77.90
2022-12-07T01:49:27.329Z,78.00
2022-12-07T01:52:05.442Z,78.10
2022-12-07T01:54:33.815Z,78.20
2022-12-07T01:57:02.235Z,78.20
2022-12-07T01:59:29.636Z,78.20
2022-12-07T02:01:57.766Z,78.40
2022-12-07T02:04:25.590Z,78.40
2022-12-07T02:06:54.769Z,78.50
2022-12-07T02:09:22.046Z,78.50
2022-12-07T02:11:49.587Z,78.50
2022-12-07T02:14:16.841Z,78.70
2022-12-07T02:16:57.903Z,78.70
2022-12-07T02:19:50.353Z,78.80
2022-12-07T02:22:52.658Z,78.80
2022-12-07T02:25:27.691Z,78.80
2022-12-07T02:28:07.930Z,78.80
2022-12-07T02:30:39.867Z,78.80
2022-12-07T02:33:25.735Z,78.90
2022-12-07T02:36:05.461Z,78.90
2022-12-07T02:38:40.895Z,78.90
2022-12-07T02:41:19.060Z,78.90
2022-12-07T02:43:51.670Z,78.90
2022-12-07T02:46:23.803Z,79.00
2022-12-07T02:48:53.302Z,78.90
2022-12-07T02:51:21.975Z,78.90
2022-12-07T02:53:49.490Z,78.90
2022-12-07T02:56:31.743Z,78.90
2022-12-07T02:59:26.358Z,78.90
2022-12-07T03:02:22.430Z,78.90
2022-12-07T03:05:01.509Z,78.80
2022-12-07T03:07:55.754Z,78.60
2022-12-07T03:10:30.184Z,78.70
2022-12-07T03:13:20.691Z,78.70
2022-12-07T03:15:55.483Z,78.70
2022-12-07T03:18:25.966Z,78.60
2022-12-07T03:20:58.056Z,78.30
2022-12-07T03:23:27.067Z,78.30
2022-12-07T03:26:00.838Z,78.20
2022-12-07T03:28:39.230Z,78.30
2022-12-07T03:31:21.549Z,78.40
2022-12-07T03:34:31.510Z,78.50
2022-12-07T03:37:03.712Z,78.80
2022-12-07T03:40:23.687Z,79.90
2022-12-07T03:42:52.299Z,79.50
2022-12-07T03:45:23.027Z,79.60
2022-12-07T03:48:00.755Z,79.90
2022-12-07T03:50:42.662Z,80.00
2022-12-07T03:53:16.643Z,80.10
2022-12-07T03:55:47.059Z,80.10
2022-12-07T03:58:18.831Z,80.20
2022-12-07T04:00:46.662Z,80.20
2022-12-07T04:03:14.173Z,80.20
2022-12-07T04:05:42.124Z,80.10
2022-12-07T04:08:09.869Z,80.20
2022-12-07T04:10:37.330Z,80.10
2022-12-07T04:13:04.832Z,80.10
2022-12-07T04:15:32.267Z,80.10
2022-12-07T04:17:59.620Z,79.90
2022-12-07T04:20:26.869Z,80.00
2022-12-07T04:22:54.194Z,79.80
2022-12-07T04:25:21.714Z,79.50
2022-12-07T04:27:49.098Z,79.40
2022-12-07T04:30:16.453Z,79.40
2022-12-07T04:32:43.635Z,79.40
2022-12-07T04:35:11.042Z,79.30
2022-12-07T04:37:40.538Z,79.30
2022-12-07T04:40:11.953Z,79.20
2022-12-07T04:42:39.429Z,79.20
2022-12-07T04:45:07.618Z,79.20
2022-12-07T04:47:35.100Z,79.10
2022-12-07T04:50:02.705Z,79.00
2022-12-07T04:52:30.373Z,79.00
2022-12-07T04:54:57.621Z,79.00
2022-12-07T04:57:25.200Z,78.80
2022-12-07T04:59:52.550Z,78.80
2022-12-07T05:02:19.978Z,78.80
2022-12-07T05:04:47.276Z,78.90
2022-12-07T05:07:14.607Z,78.80
2022-12-07T05:09:41.954Z,78.90
2022-12-07T05:12:09.497Z,78.80
2022-12-07T05:14:36.847Z,78.80
2022-12-07T05:17:05.051Z,78.90
2022-12-07T05:19:32.746Z,78.70
2022-12-07T05:22:00.311Z,78.70
2022-12-07T05:24:27.828Z,78.70
2022-12-07T05:26:55.165Z,78.60
2022-12-07T05:29:22.550Z,78.60
2022-12-07T05:31:50.288Z,78.50
2022-12-07T05:34:17.678Z,78.50
2022-12-07T05:36:45.101Z,78.60
2022-12-07T05:39:12.453Z,78.70
2022-12-07T05:41:58.338Z,78.60
2022-12-07T05:44:25.806Z,78.50
2022-12-07T05:46:53.213Z,78.40
2022-12-07T05:49:20.681Z,78.40
2022-12-07T05:51:48.603Z,78.40
2022-12-07T05:54:15.890Z,78.40
2022-12-07T05:56:43.242Z,78.40
2022-12-07T05:59:23.373Z,78.50
2022-12-07T06:01:53.829Z,78.50
2022-12-07T06:04:21.892Z,78.50
2022-12-07T06:06:49.602Z,78.40
2022-12-07T06:09:19.157Z,78.50
2022-12-07T06:12:05.870Z,78.50
2022-12-07T06:14:33.500Z,78.40
2022-12-07T06:17:01.204Z,78.20
2022-12-07T06:19:28.742Z,78.20
2022-12-07T06:21:56.340Z,78.00
2022-12-07T06:24:23.959Z,78.00
2022-12-07T06:26:51.335Z,78.00
2022-12-07T06:29:20.055Z,78.00
2022-12-07T06:31:47.558Z,78.10
2022-12-07T06:34:17.991Z,78.20
2022-12-07T06:36:45.950Z,78.30
2022-12-07T06:39:13.382Z,78.40
2022-12-07T06:41:40.866Z,78.40
2022-12-07T06:44:08.682Z,78.50
2022-12-07T06:46:38.814Z,78.60
2022-12-07T06:49:06.970Z,78.80
2022-12-07T06:51:37.305Z,78.90
2022-12-07T06:54:05.346Z,78.90
2022-12-07T06:56:32.702Z,78.90
2022-12-07T06:59:00.103Z,79.10
2022-12-07T07:01:27.853Z,79.10
2022-12-07T07:03:55.273Z,79.00
2022-12-07T07:06:22.640Z,78.90
2022-12-07T07:08:50.337Z,79.10
2022-12-07T07:11:18.023Z,79.00
2022-12-07T07:13:45.881Z,78.90
2022-12-07T07:16:14.231Z,79.00
2022-12-07T07:18:41.835Z,79.00
2022-12-07T07:21:09.303Z,78.90
2022-12-07T07:23:36.648Z,78.90
2022-12-07T07:26:04.334Z,78.90
2022-12-07T07:28:31.742Z,78.90
2022-12-07T07:30:59.158Z,78.90
2022-12-07T07:33:26.479Z,78.90
2022-12-07T07:35:53.718Z,79.00
2022-12-07T07:38:21.485Z,79.10
2022-12-07T07:40:48.836Z,79.10
2022-12-07T07:43:16.346Z,79.10
2022-12-07T07:45:43.769Z,79.40
2022-12-07T07:48:11.051Z,79.20
2022-12-07T07:50:38.234Z,79.20
2022-12-07T07:53:05.601Z,79.20
2022-12-07T07:55:32.867Z,79.20
2022-12-07T07:58:00.287Z,79.20
2022-12-07T08:00:27.777Z,79.10
2022-12-07T08:02:55.507Z,79.10
2022-12-07T08:05:22.902Z,79.20
2022-12-07T08:07:50.417Z,79.20
2022-12-07T08:10:18.098Z,79.10
2022-12-07T08:13:04.074Z,79.20
2022-12-07T08:15:32.218Z,79.30
2022-12-07T08:18:00.963Z,79.20
2022-12-07T08:20:30.666Z,79.30
2022-12-07T08:22:58.285Z,79.10
2022-12-07T08:25:26.307Z,79.10
2022-12-07T08:27:53.894Z,79.10
2022-12-07T08:30:21.676Z,79.30
2022-12-07T08:32:49.551Z,79.20
2022-12-07T08:35:17.289Z,79.20
2022-12-07T08:37:44.969Z,79.30
2022-12-07T08:40:19.657Z,79.20
2022-12-07T08:42:51.162Z,79.30
2022-12-07T08:45:25.000Z,79.30
2022-12-07T08:48:08.854Z,79.20
2022-12-07T08:50:38.253Z,79.20
2022-12-07T08:53:07.049Z,79.30
2022-12-07T08:55:35.554Z,79.20
2022-12-07T08:58:04.447Z,79.40
2022-12-07T09:00:32.339Z,79.40
2022-12-07T09:03:00.106Z,79.30
2022-12-07T09:05:27.595Z,79.30
2022-12-07T09:08:00.526Z,79.30
2022-12-07T09:10:28.729Z,79.30
2022-12-07T09:12:56.375Z,79.20
2022-12-07T09:15:23.937Z,79.30
2022-12-07T09:17:52.594Z,79.10
2022-12-07T09:20:24.704Z,79.10
2022-12-07T09:22:55.122Z,79.10
2022-12-07T09:25:22.890Z,79.10
2022-12-07T09:27:56.995Z,79.10
2022-12-07T09:30:24.546Z,79.00
2022-12-07T09:32:55.136Z,79.10
2022-12-07T09:35:22.846Z,79.10
2022-12-07T09:37:50.791Z,79.10
2022-12-07T09:40:20.639Z,79.20
2022-12-07T09:42:56.101Z,79.20
2022-12-07T09:45:36.343Z,79.10
2022-12-07T09:48:05.005Z,79.10
2022-12-07T09:50:32.487Z,79.10
2022-12-07T09:53:20.850Z,79.00
2022-12-07T09:55:48.329Z,78.90
2022-12-07T09:58:23.434Z,79.20
2022-12-07T10:00:59.663Z,79.30
2022-12-07T10:03:29.322Z,79.30
2022-12-07T10:05:58.111Z,79.20
2022-12-07T10:08:26.571Z,79.10
2022-12-07T10:10:59.298Z,79.20
2022-12-07T10:13:41.548Z,79.20
2022-12-07T10:16:38.624Z,79.10
2022-12-07T10:19:27.524Z,79.00
2022-12-07T10:22:01.547Z,79.00
2022-12-07T10:24:29.036Z,79.10
2022-12-07T10:26:56.923Z,79.10
2022-12-07T10:29:25.681Z,79.10
2022-12-07T10:32:02.328Z,79.20
2022-12-07T10:34:34.100Z,79.10
2022-12-07T10:37:16.576Z,79.00
2022-12-07T10:39:48.250Z,78.90
2022-12-07T10:42:27.711Z,78.80
2022-12-07T10:45:18.042Z,78.70
2022-12-07T10:48:00.436Z,78.70
2022-12-07T10:50:42.853Z,78.60
2022-12-07T10:53:29.371Z,78.50
2022-12-07T10:56:15.062Z,78.70
2022-12-07T10:58:46.471Z,78.80
2022-12-07T11:01:34.699Z,78.80
2022-12-07T11:04:39.873Z,78.80
2022-12-07T11:07:32.048Z,78.80
2022-12-07T11:10:08.316Z,78.90
2022-12-07T11:12:56.361Z,78.90
2022-12-07T11:15:58.136Z,79.00
2022-12-07T11:18:40.523Z,78.90
2022-12-07T11:21:14.397Z,78.90
2022-12-07T11:23:50.727Z,79.00
2022-12-07T11:26:42.528Z,79.20
2022-12-07T11:29:34.943Z,79.40
2022-12-07T11:32:39.619Z,79.50
2022-12-07T11:35:35.958Z,79.20
2022-12-07T11:38:13.458Z,79.10
2022-12-07T11:40:43.056Z,78.90
2022-12-07T11:43:23.630Z,79.60
2022-12-07T11:46:09.171Z,78.70
2022-12-07T11:48:42.627Z,78.70
2022-12-07T11:51:12.974Z,78.30
2022-12-07T11:53:49.469Z,78.40
2022-12-07T11:56:20.459Z,78.30
2022-12-07T11:58:57.716Z,78.30
2022-12-07T12:01:52.976Z,78.30
2022-12-07T12:04:45.588Z,78.00
2022-12-07T12:10:17.133Z,77.70
2022-12-07T12:16:08.363Z,77.30
2022-12-07T12:18:41.141Z,77.10
2022-12-07T12:21:17.778Z,77.00
2022-12-07T12:24:12.927Z,76.70
2022-12-07T12:26:50.130Z,76.60
2022-12-07T12:29:34.092Z,76.20
2022-12-07T12:32:22.553Z,75.90
2022-12-07T12:35:04.068Z,76.10
2022-12-07T12:37:34.412Z,76.40
2022-12-07T12:40:17.233Z,76.20
2022-12-07T12:42:52.789Z,76.40
2022-12-07T12:45:30.610Z,75.90
2022-12-07T12:48:02.785Z,75.90
2022-12-07T12:50:38.590Z,75.30
2022-12-07T12:53:14.167Z,75.30
2022-12-07T12:55:44.758Z,75.40
2022-12-07T12:58:21.422Z,75.20
2022-12-07T13:01:07.407Z,75.10
2022-12-07T13:03:35.235Z,74.90
2022-12-07T13:06:24.964Z,74.80
2022-12-07T13:08:55.081Z,74.90
2022-12-07T13:11:39.322Z,75.00
2022-12-07T13:14:41.851Z,75.10
2022-12-07T13:17:35.992Z,75.30
2022-12-07T13:20:05.908Z,75.30
2022-12-07T13:22:38.722Z,74.90
2022-12-07T13:25:23.716Z,74.40
2022-12-07T13:28:16.351Z,74.30
2022-12-07T13:30:58.414Z,74.50
2022-12-07T13:33:30.082Z,74.60
2022-12-07T13:36:01.130Z,74.40
2022-12-07T13:38:32.694Z,74.40
2022-12-07T13:41:21.833Z,74.30
2022-12-07T13:43:53.121Z,74.70
2022-12-07T13:46:28.391Z,74.30
2022-12-07T13:48:56.727Z,74.10
2022-12-07T13:51:27.163Z,74.40
2022-12-07T13:54:00.071Z,74.20
2022-12-07T13:56:34.012Z,74.30
2022-12-07T13:59:05.062Z,74.30
2022-12-07T14:01:33.524Z,74.10
2022-12-07T14:04:41.080Z,74.00
2022-12-07T14:07:23.243Z,73.90
2022-12-07T14:10:02.127Z,73.70
2022-12-07T14:12:31.190Z,73.60
2022-12-07T14:15:01.312Z,73.80
2022-12-07T14:17:30.207Z,74.10
2022-12-07T14:19:58.861Z,74.20
2022-12-07T14:22:37.387Z,74.00
2022-12-07T14:25:18.254Z,74.10
2022-12-07T14:27:51.441Z,73.80
2022-12-07T14:30:20.083Z,73.90
2022-12-07T14:32:52.674Z,74.00
2022-12-07T14:35:20.669Z,74.00
2022-12-07T14:37:50.617Z,74.20
2022-12-07T14:40:24.391Z,74.30
2022-12-07T14:42:56.947Z,74.30
2022-12-07T14:45:24.638Z,74.30
2022-12-07T14:53:36.569Z,74.50
2022-12-07T14:56:06.727Z,74.50
2022-12-07T14:58:34.230Z,74.30
2022-12-07T15:01:01.641Z,74.50
2022-12-07T15:03:29.310Z,74.70
2022-12-07T15:05:56.760Z,74.80
2022-12-07T15:08:24.192Z,74.90
2022-12-07T15:10:51.787Z,75.00
2022-12-07T15:13:38.218Z,74.90
2022-12-07T15:16:06.551Z,74.80
2022-12-07T15:18:33.977Z,74.80
2022-12-07T15:21:01.358Z,74.80
2022-12-07T15:23:28.718Z,74.80
2022-12-07T15:25:56.183Z,74.90
2022-12-07T15:28:23.630Z,74.90
2022-12-07T15:30:51.499Z,74.90
2022-12-07T15:33:18.962Z,74.90
2022-12-07T15:35:46.871Z,75.00
2022-12-07T15:38:14.559Z,75.10
2022-12-07T15:40:42.021Z,75.30
2022-12-07T15:43:30.670Z,75.20
2022-12-07T15:45:58.800Z,75.30
2022-12-07T15:48:28.364Z,75.50
2022-12-07T15:51:05.910Z,75.60
2022-12-07T15:53:34.322Z,75.40
2022-12-07T15:56:02.258Z,75.50
2022-12-07T15:58:29.644Z,75.30
2022-12-07T16:00:57.322Z,75.30
2022-12-07T16:03:24.729Z,75.30
2022-12-07T16:05:54.004Z,75.30
2022-12-07T16:08:21.644Z,76.20
2022-12-07T16:10:49.180Z,75.30
2022-12-07T16:13:16.666Z,75.30
2022-12-07T16:15:44.475Z,75.40
2022-12-07T16:18:11.990Z,75.50
2022-12-07T16:20:39.592Z,75.50
2022-12-07T16:23:08.124Z,75.40
2022-12-07T16:25:35.565Z,75.50
2022-12-07T16:28:03.189Z,75.50
2022-12-07T16:30:30.669Z,75.60
2022-12-07T16:33:02.402Z,75.70
2022-12-07T16:35:30.201Z,75.60
2022-12-07T16:37:57.782Z,75.80
2022-12-07T16:40:25.348Z,75.70
2022-12-07T16:42:52.995Z,75.80
2022-12-07T16:45:21.220Z,75.80
2022-12-07T16:47:48.948Z,75.90
2022-12-07T16:50:16.350Z,75.90
2022-12-07T16:52:43.603Z,75.90
2022-12-07T16:55:11.030Z,75.90
2022-12-07T16:57:38.772Z,75.90
2022-12-07T17:00:06.857Z,76.70
2022-12-07T17:02:34.674Z,75.90
2022-12-07T17:05:02.597Z,76.00
2022-12-07T17:07:32.879Z,76.00
2022-12-07T17:10:00.229Z,76.00
2022-12-07T17:12:27.730Z,76.00
2022-12-07T17:15:14.004Z,75.80
2022-12-07T17:17:41.496Z,75.90
2022-12-07T17:20:09.531Z,75.90
2022-12-07T17:22:36.804Z,76.00
2022-12-07T17:25:06.304Z,76.10
2022-12-07T17:27:33.933Z,76.10
2022-12-07T17:30:01.462Z,76.00
2022-12-07T17:32:28.936Z,76.10
2022-12-07T17:34:56.422Z,76.00
2022-12-07T17:37:23.844Z,76.00
2022-12-07T17:39:52.416Z,76.10
2022-12-07T17:42:37.918Z,76.20
2022-12-07T17:45:10.023Z,76.30
2022-12-07T17:47:38.134Z,76.30
2022-12-07T17:50:07.743Z,76.20
2022-12-07T17:52:56.507Z,76.10
2022-12-07T17:55:24.063Z,76.20
2022-12-07T17:57:52.039Z,76.20
2022-12-07T18:00:19.804Z,76.10
2022-12-07T18:02:47.488Z,76.20
2022-12-07T18:05:14.896Z,76.30
2022-12-07T18:07:42.445Z,76.40
2022-12-07T18:10:11.892Z,76.40
2022-12-07T18:12:40.500Z,76.40
2022-12-07T18:15:08.278Z,76.40
2022-12-07T18:17:35.706Z,76.40
2022-12-07T18:20:03.679Z,76.40
2022-12-07T18:22:31.092Z,76.40
2022-12-07T18:24:58.469Z,76.40
2022-12-07T18:27:25.776Z,76.40
2022-12-07T18:29:54.121Z,76.40
2022-12-07T18:32:21.496Z,76.50
2022-12-07T18:34:48.835Z,76.50
2022-12-07T18:37:16.446Z,76.50
2022-12-07T18:39:43.856Z,76.60
2022-12-07T18:42:11.358Z,76.60
2022-12-07T18:44:38.726Z,76.50
2022-12-07T18:47:06.157Z,76.50
2022-12-07T18:49:33.339Z,76.60
2022-12-07T18:52:00.655Z,76.60
2022-12-07T18:54:28.006Z,76.60
2022-12-07T18:56:56.900Z,76.70
2022-12-07T18:59:42.870Z,76.60
2022-12-07T19:02:10.914Z,76.50
2022-12-07T19:04:38.377Z,76.50
2022-12-07T19:07:05.906Z,76.50
2022-12-07T19:09:33.163Z,76.50
2022-12-07T19:12:03.343Z,76.50
2022-12-07T19:14:32.448Z,76.50
2022-12-07T19:17:02.779Z,76.50
2022-12-07T19:19:33.351Z,76.50
2022-12-07T19:22:01.594Z,76.40
2022-12-07T19:24:29.275Z,76.50
2022-12-07T19:26:57.295Z,76.60
2022-12-07T19:29:24.518Z,76.60
2022-12-07T19:31:51.861Z,76.50
2022-12-07T19:34:19.531Z,76.50
2022-12-07T19:36:47.213Z,76.50
2022-12-07T19:39:15.885Z,76.60
2022-12-07T19:41:44.823Z,76.60
2022-12-07T19:44:12.330Z,76.60
2022-12-07T19:46:40.507Z,76.50
2022-12-07T19:49:08.273Z,76.50
2022-12-07T19:51:35.712Z,76.50
2022-12-07T19:54:03.357Z,76.60
2022-12-07T19:56:31.521Z,76.60
2022-12-07T19:59:01.144Z,76.60
2022-12-07T20:01:30.154Z,76.60
2022-12-07T20:03:58.113Z,76.60
2022-12-07T20:06:26.335Z,76.50
2022-12-07T20:08:54.095Z,76.60
2022-12-07T20:11:40.019Z,76.60
2022-12-07T20:14:12.615Z,76.60
2022-12-07T20:16:41.238Z,76.50
2022-12-07T20:19:09.122Z,76.50
2022-12-07T20:21:37.694Z,76.50
2022-12-07T20:24:07.504Z,76.40
2022-12-07T20:26:35.859Z,76.40
2022-12-07T20:29:17.979Z,76.40
2022-12-07T20:31:50.533Z,76.60
2022-12-07T20:34:18.269Z,76.70
2022-12-07T20:36:45.703Z,76.70
2022-12-07T20:39:13.913Z,76.80
2022-12-07T20:42:00.680Z,76.70
2022-12-07T20:44:28.102Z,76.80
2022-12-07T20:46:55.666Z,77.60
2022-12-07T20:49:22.926Z,76.80
2022-12-07T20:51:51.448Z,76.80
2022-12-07T20:54:19.043Z,76.80
2022-12-07T20:56:46.460Z,76.70
2022-12-07T20:59:15.551Z,76.70
2022-12-07T21:01:43.725Z,76.60
2022-12-07T21:04:13.314Z,76.60
2022-12-07T21:06:40.686Z,76.50
2022-12-07T21:09:10.759Z,76.60
2022-12-07T21:11:39.308Z,76.50
2022-12-07T21:14:07.040Z,76.40
2022-12-07T21:16:34.484Z,76.40
2022-12-07T21:19:03.170Z,76.40
2022-12-07T21:21:32.250Z,76.40
2022-12-07T21:24:02.848Z,76.50
2022-12-07T21:26:35.397Z,76.40
2022-12-07T21:29:05.578Z,76.40
2022-12-07T21:31:33.792Z,76.30
2022-12-07T21:34:04.613Z,76.30
2022-12-07T21:36:32.834Z,76.40
2022-12-07T21:39:00.090Z,76.30
2022-12-07T21:41:30.087Z,76.40
2022-12-07T21:43:58.433Z,76.40
2022-12-07T21:46:33.308Z,76.50
2022-12-07T21:49:05.185Z,76.60
2022-12-07T21:51:32.823Z,76.60
2022-12-07T21:54:01.614Z,76.80
2022-12-07T21:56:38.269Z,76.90
2022-12-07T21:59:09.145Z,77.10
2022-12-07T22:01:38.753Z,77.10
2022-12-07T22:04:11.672Z,77.00
2022-12-07T22:06:39.477Z,76.90
2022-12-07T22:09:07.212Z,77.00
2022-12-07T22:11:35.578Z,77.00
2022-12-07T22:14:37.039Z,77.10
2022-12-07T22:17:04.598Z,77.10
2022-12-07T22:19:32.008Z,77.20
2022-12-07T22:21:59.609Z,77.20
2022-12-07T22:24:27.047Z,77.30
2022-12-07T22:26:54.386Z,77.30
2022-12-07T22:29:24.076Z,77.30
2022-12-07T22:31:54.059Z,77.30
2022-12-07T22:34:22.055Z,77.20
2022-12-07T22:36:49.432Z,77.10
2022-12-07T22:39:16.886Z,77.20
2022-12-07T22:41:44.562Z,77.20
2022-12-07T22:44:12.174Z,77.10
2022-12-07T22:46:39.538Z,77.20
2022-12-07T22:49:07.555Z,77.10
2022-12-07T22:51:38.238Z,77.80
2022-12-07T22:54:07.866Z,77.00
2022-12-07T22:56:37.324Z,76.90
2022-12-07T22:59:06.428Z,76.90
2022-12-07T23:01:34.883Z,76.80
2022-12-07T23:04:02.392Z,76.70
2022-12-07T23:06:32.574Z,76.80
2022-12-07T23:09:02.723Z,76.70
2022-12-07T23:11:51.341Z,76.80
2022-12-07T23:14:29.216Z,76.80
2022-12-07T23:16:56.847Z,76.70
2022-12-07T23:19:27.131Z,76.60
2022-12-07T23:21:54.519Z,76.60
2022-12-07T23:24:21.980Z,76.50
2022-12-07T23:26:49.479Z,76.70
2022-12-07T23:29:18.148Z,76.80
2022-12-07T23:31:47.573Z,76.70
2022-12-07T23:34:15.182Z,76.70
2022-12-07T23:36:42.595Z,76.70
2022-12-07T23:39:10.842Z,76.60
2022-12-07T23:41:38.964Z,76.50
2022-12-07T23:44:06.375Z,76.40
2022-12-07T23:46:34.256Z,76.30
2022-12-07T23:49:04.322Z,76.20
2022-12-07T23:51:32.434Z,76.40
2022-12-07T23:54:01.726Z,76.30
2022-12-07T23:56:31.609Z,76.30
2022-12-07T23:58:59.579Z,76.40
